sensor_id;sensor_type;location;lat;lon;timestamp;P1;durP1;ratioP1;P2;durP2;ratioP2
52554;SDS011;38455;52.710;6.502;2022-10-31T00:02:06;19.13;;;10.82;;
52554;SDS011;38455;52.710;6.502;2022-10-31T00:04:31;18.77;;;9.90;;
52554;SDS011;38455;52.710;6.502;2022-10-31T00:06:57;21.02;;;10.75;;
52554;SDS011;38455;52.710;6.502;2022-10-31T00:09:23;17.10;;;9.40;;
52554;SDS011;38455;52.710;6.502;2022-10-31T00:11:49;19.15;;;10.50;;
52554;SDS011;38455;52.710;6.502;2022-10-31T00:14:14;13.52;;;8.05;;
52554;SDS011;38455;52.710;6.502;2022-10-31T00:16:40;11.90;;;7.38;;
52554;SDS011;38455;52.710;6.502;2022-10-31T00:19:06;17.60;;;8.88;;
52554;SDS011;38455;52.710;6.502;2022-10-31T00:21:33;21.83;;;10.10;;
52554;SDS011;38455;52.710;6.502;2022-10-31T00:23:59;18.52;;;8.98;;
52554;SDS011;38455;52.710;6.502;2022-10-31T00:26:26;16.63;;;9.82;;
52554;SDS011;38455;52.710;6.502;2022-10-31T00:28:53;21.33;;;9.93;;
52554;SDS011;38455;52.710;6.502;2022-10-31T00:31:19;25.58;;;11.40;;
52554;SDS011;38455;52.710;6.502;2022-10-31T00:33:44;14.75;;;9.20;;
52554;SDS011;38455;52.710;6.502;2022-10-31T00:36:11;22.38;;;10.73;;
52554;SDS011;38455;52.710;6.502;2022-10-31T00:38:41;21.63;;;10.40;;
52554;SDS011;38455;52.710;6.502;2022-10-31T00:41:08;21.63;;;10.77;;
52554;SDS011;38455;52.710;6.502;2022-10-31T00:43:34;23.25;;;11.32;;
52554;SDS011;38455;52.710;6.502;2022-10-31T00:46:00;24.63;;;13.43;;
52554;SDS011;38455;52.710;6.502;2022-10-31T00:48:25;26.55;;;13.52;;
52554;SDS011;38455;52.710;6.502;2022-10-31T00:50:51;20.85;;;12.07;;
52554;SDS011;38455;52.710;6.502;2022-10-31T00:53:16;19.98;;;11.88;;
52554;SDS011;38455;52.710;6.502;2022-10-31T00:55:42;23.50;;;11.73;;
52554;SDS011;38455;52.710;6.502;2022-10-31T00:58:08;25.30;;;12.15;;
52554;SDS011;38455;52.710;6.502;2022-10-31T01:00:33;21.15;;;11.60;;
52554;SDS011;38455;52.710;6.502;2022-10-31T01:02:59;22.98;;;12.52;;
52554;SDS011;38455;52.710;6.502;2022-10-31T01:05:24;19.08;;;11.40;;
52554;SDS011;38455;52.710;6.502;2022-10-31T01:07:50;26.35;;;13.18;;
52554;SDS011;38455;52.710;6.502;2022-10-31T01:10:16;30.52;;;14.05;;
52554;SDS011;38455;52.710;6.502;2022-10-31T01:12:44;23.58;;;12.15;;
52554;SDS011;38455;52.710;6.502;2022-10-31T01:15:12;30.58;;;13.40;;
52554;SDS011;38455;52.710;6.502;2022-10-31T01:17:39;23.58;;;13.40;;
52554;SDS011;38455;52.710;6.502;2022-10-31T01:20:05;27.38;;;14.00;;
52554;SDS011;38455;52.710;6.502;2022-10-31T01:22:32;27.95;;;14.68;;
52554;SDS011;38455;52.710;6.502;2022-10-31T01:24:58;18.20;;;11.80;;
52554;SDS011;38455;52.710;6.502;2022-10-31T01:27:24;25.30;;;14.32;;
52554;SDS011;38455;52.710;6.502;2022-10-31T01:29:49;21.50;;;12.15;;
52554;SDS011;38455;52.710;6.502;2022-10-31T01:32:15;23.35;;;12.50;;
52554;SDS011;38455;52.710;6.502;2022-10-31T01:34:40;23.10;;;12.20;;
52554;SDS011;38455;52.710;6.502;2022-10-31T01:37:06;21.55;;;12.43;;
52554;SDS011;38455;52.710;6.502;2022-10-31T01:39:32;20.00;;;11.38;;
52554;SDS011;38455;52.710;6.502;2022-10-31T01:41:57;25.90;;;12.48;;
52554;SDS011;38455;52.710;6.502;2022-10-31T01:46:53;18.98;;;11.30;;
52554;SDS011;38455;52.710;6.502;2022-10-31T01:52:23;13.95;;;8.88;;
52554;SDS011;38455;52.710;6.502;2022-10-31T01:54:51;16.52;;;9.77;;
52554;SDS011;38455;52.710;6.502;2022-10-31T01:57:22;16.20;;;8.95;;
52554;SDS011;38455;52.710;6.502;2022-10-31T01:59:50;13.27;;;9.25;;
52554;SDS011;38455;52.710;6.502;2022-10-31T02:02:19;17.38;;;9.38;;
52554;SDS011;38455;52.710;6.502;2022-10-31T02:04:45;20.02;;;9.70;;
52554;SDS011;38455;52.710;6.502;2022-10-31T02:07:14;12.98;;;8.13;;
52554;SDS011;38455;52.710;6.502;2022-10-31T02:09:45;12.60;;;8.20;;
52554;SDS011;38455;52.710;6.502;2022-10-31T02:12:12;11.70;;;6.00;;
52554;SDS011;38455;52.710;6.502;2022-10-31T02:14:39;8.30;;;6.55;;
52554;SDS011;38455;52.710;6.502;2022-10-31T02:17:05;21.75;;;10.40;;
52554;SDS011;38455;52.710;6.502;2022-10-31T02:19:37;14.50;;;8.57;;
52554;SDS011;38455;52.710;6.502;2022-10-31T02:34:12;15.73;;;8.50;;
52554;SDS011;38455;52.710;6.502;2022-10-31T02:41:34;9.15;;;6.05;;
52554;SDS011;38455;52.710;6.502;2022-10-31T02:44:20;8.35;;;5.50;;
52554;SDS011;38455;52.710;6.502;2022-10-31T02:46:54;60.97;;;8.65;;
52554;SDS011;38455;52.710;6.502;2022-10-31T02:52:19;10.02;;;6.65;;
52554;SDS011;38455;52.710;6.502;2022-10-31T02:54:46;15.60;;;7.07;;
52554;SDS011;38455;52.710;6.502;2022-10-31T02:57:13;8.88;;;4.97;;
52554;SDS011;38455;52.710;6.502;2022-10-31T02:59:44;11.02;;;6.85;;
52554;SDS011;38455;52.710;6.502;2022-10-31T03:02:22;10.23;;;5.40;;
52554;SDS011;38455;52.710;6.502;2022-10-31T03:05:11;10.88;;;6.03;;
52554;SDS011;38455;52.710;6.502;2022-10-31T03:08:01;10.05;;;5.72;;
52554;SDS011;38455;52.710;6.502;2022-10-31T03:10:40;9.27;;;5.50;;
52554;SDS011;38455;52.710;6.502;2022-10-31T03:18:37;16.35;;;8.88;;
52554;SDS011;38455;52.710;6.502;2022-10-31T03:24:06;17.77;;;9.80;;
52554;SDS011;38455;52.710;6.502;2022-10-31T03:26:35;15.98;;;8.20;;
52554;SDS011;38455;52.710;6.502;2022-10-31T03:29:07;16.70;;;9.68;;
52554;SDS011;38455;52.710;6.502;2022-10-31T03:31:38;11.93;;;7.65;;
52554;SDS011;38455;52.710;6.502;2022-10-31T03:34:12;9.95;;;6.25;;
52554;SDS011;38455;52.710;6.502;2022-10-31T03:36:40;13.77;;;9.10;;
52554;SDS011;38455;52.710;6.502;2022-10-31T03:39:08;13.65;;;8.55;;
52554;SDS011;38455;52.710;6.502;2022-10-31T03:41:39;12.60;;;7.03;;
52554;SDS011;38455;52.710;6.502;2022-10-31T03:44:09;42.78;;;8.75;;
52554;SDS011;38455;52.710;6.502;2022-10-31T03:46:38;11.30;;;7.43;;
52554;SDS011;38455;52.710;6.502;2022-10-31T03:49:04;13.25;;;8.50;;
52554;SDS011;38455;52.710;6.502;2022-10-31T03:51:37;10.63;;;7.60;;
52554;SDS011;38455;52.710;6.502;2022-10-31T03:54:22;25.02;;;7.25;;
52554;SDS011;38455;52.710;6.502;2022-10-31T03:56:53;11.95;;;6.28;;
52554;SDS011;38455;52.710;6.502;2022-10-31T03:59:40;12.23;;;8.00;;
52554;SDS011;38455;52.710;6.502;2022-10-31T04:02:14;8.45;;;6.32;;
52554;SDS011;38455;52.710;6.502;2022-10-31T04:04:42;10.98;;;7.68;;
52554;SDS011;38455;52.710;6.502;2022-10-31T04:07:09;29.40;;;8.95;;
52554;SDS011;38455;52.710;6.502;2022-10-31T04:09:37;13.02;;;7.80;;
52554;SDS011;38455;52.710;6.502;2022-10-31T04:12:06;12.65;;;6.35;;
52554;SDS011;38455;52.710;6.502;2022-10-31T04:14:34;12.68;;;7.07;;
52554;SDS011;38455;52.710;6.502;2022-10-31T04:17:03;77.32;;;9.52;;
52554;SDS011;38455;52.710;6.502;2022-10-31T04:19:32;218.63;;;12.57;;
52554;SDS011;38455;52.710;6.502;2022-10-31T04:21:58;60.97;;;7.05;;
52554;SDS011;38455;52.710;6.502;2022-10-31T04:24:23;130.65;;;8.45;;
52554;SDS011;38455;52.710;6.502;2022-10-31T04:26:49;48.75;;;6.18;;
52554;SDS011;38455;52.710;6.502;2022-10-31T04:29:15;133.00;;;9.38;;
52554;SDS011;38455;52.710;6.502;2022-10-31T04:31:40;223.93;;;13.40;;
52554;SDS011;38455;52.710;6.502;2022-10-31T04:34:06;102.80;;;8.65;;
52554;SDS011;38455;52.710;6.502;2022-10-31T04:36:32;33.90;;;6.55;;
52554;SDS011;38455;52.710;6.502;2022-10-31T04:38:58;26.33;;;6.95;;
52554;SDS011;38455;52.710;6.502;2022-10-31T04:41:23;51.58;;;8.25;;
52554;SDS011;38455;52.710;6.502;2022-10-31T04:43:49;42.50;;;7.43;;
52554;SDS011;38455;52.710;6.502;2022-10-31T04:46:15;44.30;;;8.52;;
52554;SDS011;38455;52.710;6.502;2022-10-31T04:48:40;20.35;;;7.32;;
52554;SDS011;38455;52.710;6.502;2022-10-31T04:51:06;15.85;;;8.65;;
52554;SDS011;38455;52.710;6.502;2022-10-31T04:53:31;10.82;;;7.18;;
52554;SDS011;38455;52.710;6.502;2022-10-31T04:55:57;70.57;;;9.35;;
52554;SDS011;38455;52.710;6.502;2022-10-31T04:58:24;79.40;;;8.13;;
52554;SDS011;38455;52.710;6.502;2022-10-31T05:00:53;126.32;;;8.43;;
52554;SDS011;38455;52.710;6.502;2022-10-31T05:03:19;106.40;;;8.00;;
52554;SDS011;38455;52.710;6.502;2022-10-31T05:05:45;57.50;;;7.03;;
52554;SDS011;38455;52.710;6.502;2022-10-31T05:08:11;82.13;;;7.40;;
52554;SDS011;38455;52.710;6.502;2022-10-31T05:10:37;41.45;;;6.57;;
52554;SDS011;38455;52.710;6.502;2022-10-31T05:13:02;76.10;;;6.72;;
52554;SDS011;38455;52.710;6.502;2022-10-31T05:15:29;90.72;;;8.40;;
52554;SDS011;38455;52.710;6.502;2022-10-31T05:17:55;72.20;;;7.63;;
52554;SDS011;38455;52.710;6.502;2022-10-31T05:20:23;36.13;;;6.68;;
52554;SDS011;38455;52.710;6.502;2022-10-31T05:22:51;94.65;;;9.30;;
52554;SDS011;38455;52.710;6.502;2022-10-31T05:25:19;163.57;;;12.55;;
52554;SDS011;38455;52.710;6.502;2022-10-31T05:27:47;132.88;;;10.88;;
52554;SDS011;38455;52.710;6.502;2022-10-31T05:30:15;59.03;;;9.00;;
52554;SDS011;38455;52.710;6.502;2022-10-31T05:32:43;90.95;;;9.82;;
52554;SDS011;38455;52.710;6.502;2022-10-31T05:35:12;57.03;;;7.90;;
52554;SDS011;38455;52.710;6.502;2022-10-31T05:37:39;92.72;;;10.95;;
52554;SDS011;38455;52.710;6.502;2022-10-31T05:40:06;175.82;;;13.32;;
52554;SDS011;38455;52.710;6.502;2022-10-31T05:42:33;131.32;;;15.05;;
52554;SDS011;38455;52.710;6.502;2022-10-31T05:44:59;116.68;;;14.23;;
52554;SDS011;38455;52.710;6.502;2022-10-31T05:47:25;52.70;;;9.68;;
52554;SDS011;38455;52.710;6.502;2022-10-31T05:49:51;68.20;;;11.40;;
52554;SDS011;38455;52.710;6.502;2022-10-31T05:52:16;76.03;;;12.27;;
52554;SDS011;38455;52.710;6.502;2022-10-31T05:54:42;99.55;;;11.30;;
52554;SDS011;38455;52.710;6.502;2022-10-31T05:57:08;91.80;;;13.13;;
52554;SDS011;38455;52.710;6.502;2022-10-31T05:59:34;88.97;;;14.20;;
52554;SDS011;38455;52.710;6.502;2022-10-31T06:01:59;76.03;;;10.02;;
52554;SDS011;38455;52.710;6.502;2022-10-31T06:04:25;32.80;;;9.93;;
52554;SDS011;38455;52.710;6.502;2022-10-31T06:06:50;21.20;;;9.45;;
52554;SDS011;38455;52.710;6.502;2022-10-31T06:09:16;14.25;;;7.82;;
52554;SDS011;38455;52.710;6.502;2022-10-31T06:11:41;21.75;;;9.48;;
52554;SDS011;38455;52.710;6.502;2022-10-31T06:14:07;88.45;;;12.68;;
52554;SDS011;38455;52.710;6.502;2022-10-31T06:16:33;50.70;;;11.93;;
52554;SDS011;38455;52.710;6.502;2022-10-31T06:18:58;23.40;;;9.02;;
52554;SDS011;38455;52.710;6.502;2022-10-31T06:21:24;29.58;;;8.45;;
52554;SDS011;38455;52.710;6.502;2022-10-31T06:23:50;79.07;;;11.50;;
52554;SDS011;38455;52.710;6.502;2022-10-31T06:26:16;93.05;;;11.50;;
52554;SDS011;38455;52.710;6.502;2022-10-31T06:28:41;103.68;;;11.85;;
52554;SDS011;38455;52.710;6.502;2022-10-31T06:31:07;97.70;;;11.95;;
52554;SDS011;38455;52.710;6.502;2022-10-31T06:33:33;78.82;;;11.88;;
52554;SDS011;38455;52.710;6.502;2022-10-31T06:35:59;55.58;;;10.95;;
52554;SDS011;38455;52.710;6.502;2022-10-31T06:38:26;28.88;;;7.75;;
52554;SDS011;38455;52.710;6.502;2022-10-31T06:40:52;47.33;;;10.23;;
52554;SDS011;38455;52.710;6.502;2022-10-31T06:43:18;111.68;;;14.07;;
52554;SDS011;38455;52.710;6.502;2022-10-31T06:45:44;71.88;;;12.18;;
52554;SDS011;38455;52.710;6.502;2022-10-31T06:48:10;84.60;;;14.85;;
52554;SDS011;38455;52.710;6.502;2022-10-31T06:50:35;51.92;;;12.93;;
52554;SDS011;38455;52.710;6.502;2022-10-31T06:53:01;46.22;;;12.63;;
52554;SDS011;38455;52.710;6.502;2022-10-31T06:55:27;37.17;;;12.75;;
52554;SDS011;38455;52.710;6.502;2022-10-31T06:57:53;61.15;;;13.00;;
52554;SDS011;38455;52.710;6.502;2022-10-31T07:00:20;85.18;;;14.18;;
52554;SDS011;38455;52.710;6.502;2022-10-31T07:02:53;63.35;;;12.20;;
52554;SDS011;38455;52.710;6.502;2022-10-31T07:05:20;82.40;;;17.92;;
52554;SDS011;38455;52.710;6.502;2022-10-31T07:07:46;74.82;;;16.65;;
52554;SDS011;38455;52.710;6.502;2022-10-31T07:10:16;60.15;;;17.58;;
52554;SDS011;38455;52.710;6.502;2022-10-31T07:12:42;91.68;;;20.90;;
52554;SDS011;38455;52.710;6.502;2022-10-31T07:15:08;84.78;;;21.10;;
52554;SDS011;38455;52.710;6.502;2022-10-31T07:17:33;58.65;;;19.38;;
52554;SDS011;38455;52.710;6.502;2022-10-31T07:19:59;17.50;;;10.82;;
52554;SDS011;38455;52.710;6.502;2022-10-31T07:22:31;59.88;;;14.07;;
52554;SDS011;38455;52.710;6.502;2022-10-31T07:24:57;136.20;;;20.55;;
52554;SDS011;38455;52.710;6.502;2022-10-31T07:27:23;66.75;;;17.40;;
52554;SDS011;38455;52.710;6.502;2022-10-31T07:29:48;80.35;;;16.60;;
52554;SDS011;38455;52.710;6.502;2022-10-31T07:32:14;71.78;;;16.25;;
52554;SDS011;38455;52.710;6.502;2022-10-31T07:34:40;67.90;;;15.45;;
52554;SDS011;38455;52.710;6.502;2022-10-31T07:37:05;137.35;;;24.38;;
52554;SDS011;38455;52.710;6.502;2022-10-31T07:39:31;91.55;;;17.75;;
52554;SDS011;38455;52.710;6.502;2022-10-31T07:41:58;104.65;;;21.13;;
52554;SDS011;38455;52.710;6.502;2022-10-31T07:44:23;110.35;;;20.45;;
52554;SDS011;38455;52.710;6.502;2022-10-31T07:46:49;75.20;;;18.85;;
52554;SDS011;38455;52.710;6.502;2022-10-31T07:49:14;63.08;;;17.05;;
52554;SDS011;38455;52.710;6.502;2022-10-31T07:51:40;55.15;;;14.55;;
52554;SDS011;38455;52.710;6.502;2022-10-31T07:54:06;76.70;;;15.40;;
52554;SDS011;38455;52.710;6.502;2022-10-31T07:56:31;88.20;;;15.32;;
52554;SDS011;38455;52.710;6.502;2022-10-31T07:58:57;50.78;;;15.70;;
52554;SDS011;38455;52.710;6.502;2022-10-31T08:01:22;79.13;;;17.77;;
52554;SDS011;38455;52.710;6.502;2022-10-31T08:03:48;77.32;;;17.00;;
52554;SDS011;38455;52.710;6.502;2022-10-31T08:06:13;94.75;;;19.15;;
52554;SDS011;38455;52.710;6.502;2022-10-31T08:08:39;86.68;;;17.50;;
52554;SDS011;38455;52.710;6.502;2022-10-31T08:11:05;56.72;;;17.88;;
52554;SDS011;38455;52.710;6.502;2022-10-31T08:13:30;68.93;;;19.35;;
52554;SDS011;38455;52.710;6.502;2022-10-31T08:15:57;46.25;;;18.48;;
52554;SDS011;38455;52.710;6.502;2022-10-31T08:18:28;52.53;;;18.75;;
52554;SDS011;38455;52.710;6.502;2022-10-31T08:20:54;32.47;;;17.67;;
52554;SDS011;38455;52.710;6.502;2022-10-31T08:23:20;51.78;;;19.00;;
52554;SDS011;38455;52.710;6.502;2022-10-31T08:25:46;42.17;;;17.98;;
52554;SDS011;38455;52.710;6.502;2022-10-31T08:28:14;65.07;;;17.08;;
52554;SDS011;38455;52.710;6.502;2022-10-31T08:30:40;62.85;;;19.40;;
52554;SDS011;38455;52.710;6.502;2022-10-31T08:33:10;62.00;;;18.08;;
52554;SDS011;38455;52.710;6.502;2022-10-31T08:35:41;40.22;;;18.95;;
52554;SDS011;38455;52.710;6.502;2022-10-31T08:38:08;133.52;;;23.85;;
52554;SDS011;38455;52.710;6.502;2022-10-31T08:40:35;91.85;;;21.65;;
52554;SDS011;38455;52.710;6.502;2022-10-31T08:43:01;51.70;;;20.77;;
52554;SDS011;38455;52.710;6.502;2022-10-31T08:45:29;38.88;;;21.27;;
52554;SDS011;38455;52.710;6.502;2022-10-31T08:47:57;43.75;;;19.48;;
52554;SDS011;38455;52.710;6.502;2022-10-31T08:50:27;50.78;;;21.42;;
52554;SDS011;38455;52.710;6.502;2022-10-31T08:52:59;35.35;;;18.90;;
52554;SDS011;38455;52.710;6.502;2022-10-31T08:55:28;51.97;;;21.35;;
52554;SDS011;38455;52.710;6.502;2022-10-31T08:57:55;92.65;;;23.48;;
52554;SDS011;38455;52.710;6.502;2022-10-31T09:00:23;39.33;;;21.40;;
52554;SDS011;38455;52.710;6.502;2022-10-31T09:03:00;40.08;;;21.00;;
52554;SDS011;38455;52.710;6.502;2022-10-31T09:05:27;50.65;;;22.42;;
52554;SDS011;38455;52.710;6.502;2022-10-31T09:07:56;32.90;;;20.45;;
52554;SDS011;38455;52.710;6.502;2022-10-31T09:10:23;36.70;;;22.05;;
52554;SDS011;38455;52.710;6.502;2022-10-31T09:13:03;33.47;;;20.58;;
52554;SDS011;38455;52.710;6.502;2022-10-31T09:15:34;32.60;;;21.48;;
52554;SDS011;38455;52.710;6.502;2022-10-31T09:18:01;40.25;;;23.52;;
52554;SDS011;38455;52.710;6.502;2022-10-31T09:20:27;36.38;;;22.08;;
52554;SDS011;38455;52.710;6.502;2022-10-31T09:22:59;37.85;;;23.27;;
52554;SDS011;38455;52.710;6.502;2022-10-31T09:25:26;34.88;;;23.17;;
52554;SDS011;38455;52.710;6.502;2022-10-31T09:27:59;38.72;;;23.45;;
52554;SDS011;38455;52.710;6.502;2022-10-31T09:30:26;34.20;;;22.63;;
52554;SDS011;38455;52.710;6.502;2022-10-31T09:32:56;28.88;;;20.25;;
52554;SDS011;38455;52.710;6.502;2022-10-31T09:35:29;30.98;;;20.38;;
52554;SDS011;38455;52.710;6.502;2022-10-31T09:37:59;30.02;;;20.52;;
52554;SDS011;38455;52.710;6.502;2022-10-31T09:51:33;32.33;;;22.08;;
52554;SDS011;38455;52.710;6.502;2022-10-31T09:54:16;32.20;;;21.83;;
52554;SDS011;38455;52.710;6.502;2022-10-31T09:56:46;28.42;;;19.52;;
52554;SDS011;38455;52.710;6.502;2022-10-31T09:59:16;27.75;;;20.30;;
52554;SDS011;38455;52.710;6.502;2022-10-31T10:04:39;27.55;;;20.23;;
52554;SDS011;38455;52.710;6.502;2022-10-31T10:16:10;29.25;;;19.63;;
52554;SDS011;38455;52.710;6.502;2022-10-31T10:18:49;23.23;;;17.27;;
52554;SDS011;38455;52.710;6.502;2022-10-31T10:26:25;26.35;;;17.73;;
52554;SDS011;38455;52.710;6.502;2022-10-31T10:29:01;28.25;;;19.70;;
52554;SDS011;38455;52.710;6.502;2022-10-31T10:31:35;25.35;;;16.73;;
52554;SDS011;38455;52.710;6.502;2022-10-31T10:34:11;23.33;;;16.00;;
52554;SDS011;38455;52.710;6.502;2022-10-31T10:36:45;24.90;;;16.75;;
52554;SDS011;38455;52.710;6.502;2022-10-31T10:39:28;28.77;;;16.90;;
52554;SDS011;38455;52.710;6.502;2022-10-31T10:41:58;26.00;;;17.63;;
52554;SDS011;38455;52.710;6.502;2022-10-31T10:44:44;23.13;;;16.23;;
52554;SDS011;38455;52.710;6.502;2022-10-31T10:47:36;25.70;;;16.30;;
52554;SDS011;38455;52.710;6.502;2022-10-31T10:50:27;25.17;;;14.30;;
52554;SDS011;38455;52.710;6.502;2022-10-31T10:53:21;24.00;;;14.75;;
52554;SDS011;38455;52.710;6.502;2022-10-31T10:58:54;16.92;;;13.07;;
52554;SDS011;38455;52.710;6.502;2022-10-31T11:01:22;22.52;;;13.25;;
52554;SDS011;38455;52.710;6.502;2022-10-31T11:03:48;29.10;;;14.40;;
52554;SDS011;38455;52.710;6.502;2022-10-31T11:06:23;20.67;;;14.27;;
52554;SDS011;38455;52.710;6.502;2022-10-31T11:08:53;23.23;;;14.63;;
52554;SDS011;38455;52.710;6.502;2022-10-31T11:14:01;25.30;;;15.82;;
52554;SDS011;38455;52.710;6.502;2022-10-31T11:19:17;23.52;;;15.57;;
52554;SDS011;38455;52.710;6.502;2022-10-31T11:21:53;25.02;;;15.30;;
52554;SDS011;38455;52.710;6.502;2022-10-31T11:24:23;24.15;;;16.58;;
52554;SDS011;38455;52.710;6.502;2022-10-31T11:27:02;28.83;;;16.92;;
52554;SDS011;38455;52.710;6.502;2022-10-31T11:29:34;25.23;;;17.30;;
52554;SDS011;38455;52.710;6.502;2022-10-31T11:32:01;23.60;;;16.10;;
52554;SDS011;38455;52.710;6.502;2022-10-31T11:34:30;27.75;;;15.80;;
52554;SDS011;38455;52.710;6.502;2022-10-31T11:37:12;22.83;;;14.30;;
52554;SDS011;38455;52.710;6.502;2022-10-31T11:39:42;20.52;;;12.70;;
52554;SDS011;38455;52.710;6.502;2022-10-31T11:42:10;18.90;;;12.07;;
52554;SDS011;38455;52.710;6.502;2022-10-31T11:44:36;21.83;;;12.52;;
52554;SDS011;38455;52.710;6.502;2022-10-31T11:47:09;18.80;;;11.85;;
52554;SDS011;38455;52.710;6.502;2022-10-31T11:49:40;19.38;;;11.05;;
52554;SDS011;38455;52.710;6.502;2022-10-31T11:52:08;21.70;;;11.10;;
52554;SDS011;38455;52.710;6.502;2022-10-31T11:57:31;17.63;;;10.02;;
52554;SDS011;38455;52.710;6.502;2022-10-31T12:00:19;17.35;;;10.30;;
52554;SDS011;38455;52.710;6.502;2022-10-31T12:02:45;19.35;;;10.40;;
52554;SDS011;38455;52.710;6.502;2022-10-31T12:05:17;19.48;;;9.77;;
52554;SDS011;38455;52.710;6.502;2022-10-31T12:07:45;18.95;;;9.88;;
52554;SDS011;38455;52.710;6.502;2022-10-31T12:10:13;18.10;;;10.80;;
52554;SDS011;38455;52.710;6.502;2022-10-31T12:15:33;19.23;;;10.65;;
52554;SDS011;38455;52.710;6.502;2022-10-31T12:31:57;15.63;;;9.07;;
52554;SDS011;38455;52.710;6.502;2022-10-31T12:45:54;19.77;;;9.93;;
52554;SDS011;38455;52.710;6.502;2022-10-31T12:48:28;20.75;;;8.43;;
52554;SDS011;38455;52.710;6.502;2022-10-31T12:51:42;19.23;;;9.82;;
52554;SDS011;38455;52.710;6.502;2022-10-31T12:54:12;20.90;;;9.35;;
52554;SDS011;38455;52.710;6.502;2022-10-31T12:59:30;15.15;;;8.55;;
52554;SDS011;38455;52.710;6.502;2022-10-31T13:05:00;14.52;;;8.48;;
52554;SDS011;38455;52.710;6.502;2022-10-31T13:10:03;14.68;;;8.18;;
52554;SDS011;38455;52.710;6.502;2022-10-31T13:12:51;26.60;;;10.23;;
52554;SDS011;38455;52.710;6.502;2022-10-31T13:15:23;16.52;;;9.82;;
52554;SDS011;38455;52.710;6.502;2022-10-31T13:17:53;15.10;;;9.50;;
52554;SDS011;38455;52.710;6.502;2022-10-31T13:31:00;20.98;;;10.20;;
52554;SDS011;38455;52.710;6.502;2022-10-31T13:33:32;17.38;;;8.77;;
52554;SDS011;38455;52.710;6.502;2022-10-31T13:46:51;13.65;;;7.30;;
52554;SDS011;38455;52.710;6.502;2022-10-31T13:49:23;13.45;;;7.20;;
52554;SDS011;38455;52.710;6.502;2022-10-31T13:54:37;14.35;;;7.22;;
52554;SDS011;38455;52.710;6.502;2022-10-31T13:57:13;12.38;;;6.68;;
52554;SDS011;38455;52.710;6.502;2022-10-31T13:59:56;14.10;;;7.82;;
52554;SDS011;38455;52.710;6.502;2022-10-31T14:02:28;13.93;;;7.15;;
52554;SDS011;38455;52.710;6.502;2022-10-31T14:04:58;17.25;;;7.45;;
52554;SDS011;38455;52.710;6.502;2022-10-31T14:07:25;12.32;;;7.28;;
52554;SDS011;38455;52.710;6.502;2022-10-31T14:10:06;16.73;;;7.80;;
52554;SDS011;38455;52.710;6.502;2022-10-31T14:12:50;15.10;;;8.43;;
52554;SDS011;38455;52.710;6.502;2022-10-31T14:15:22;14.50;;;8.27;;
52554;SDS011;38455;52.710;6.502;2022-10-31T14:17:53;12.27;;;7.53;;
52554;SDS011;38455;52.710;6.502;2022-10-31T14:20:25;13.30;;;7.95;;
52554;SDS011;38455;52.710;6.502;2022-10-31T14:23:10;14.55;;;8.32;;
52554;SDS011;38455;52.710;6.502;2022-10-31T14:26:06;12.90;;;8.30;;
52554;SDS011;38455;52.710;6.502;2022-10-31T14:28:32;15.40;;;8.43;;
52554;SDS011;38455;52.710;6.502;2022-10-31T14:31:00;13.18;;;8.15;;
52554;SDS011;38455;52.710;6.502;2022-10-31T14:33:29;16.23;;;7.85;;
52554;SDS011;38455;52.710;6.502;2022-10-31T14:36:04;14.80;;;7.68;;
52554;SDS011;38455;52.710;6.502;2022-10-31T14:38:56;12.13;;;7.53;;
52554;SDS011;38455;52.710;6.502;2022-10-31T14:46:50;14.93;;;8.32;;
52554;SDS011;38455;52.710;6.502;2022-10-31T14:51:57;18.33;;;8.85;;
52554;SDS011;38455;52.710;6.502;2022-10-31T14:54:31;16.83;;;9.98;;
52554;SDS011;38455;52.710;6.502;2022-10-31T14:57:05;12.48;;;8.18;;
52554;SDS011;38455;52.710;6.502;2022-10-31T14:59:37;16.77;;;9.45;;
52554;SDS011;38455;52.710;6.502;2022-10-31T15:02:18;17.85;;;9.15;;
52554;SDS011;38455;52.710;6.502;2022-10-31T15:04:49;17.77;;;9.18;;
52554;SDS011;38455;52.710;6.502;2022-10-31T15:07:18;15.15;;;9.48;;
52554;SDS011;38455;52.710;6.502;2022-10-31T15:10:15;14.90;;;8.52;;
52554;SDS011;38455;52.710;6.502;2022-10-31T15:12:51;18.75;;;9.18;;
52554;SDS011;38455;52.710;6.502;2022-10-31T15:15:21;14.20;;;9.07;;
52554;SDS011;38455;52.710;6.502;2022-10-31T15:17:58;12.60;;;9.25;;
52554;SDS011;38455;52.710;6.502;2022-10-31T15:20:26;15.07;;;9.02;;
52554;SDS011;38455;52.710;6.502;2022-10-31T15:22:58;19.65;;;9.70;;
52554;SDS011;38455;52.710;6.502;2022-10-31T15:25:25;19.83;;;9.45;;
52554;SDS011;38455;52.710;6.502;2022-10-31T15:27:55;15.65;;;9.32;;
52554;SDS011;38455;52.710;6.502;2022-10-31T15:30:24;13.93;;;8.80;;
52554;SDS011;38455;52.710;6.502;2022-10-31T15:32:51;16.30;;;8.95;;
52554;SDS011;38455;52.710;6.502;2022-10-31T15:35:20;15.27;;;8.68;;
52554;SDS011;38455;52.710;6.502;2022-10-31T15:37:51;14.80;;;8.30;;
52554;SDS011;38455;52.710;6.502;2022-10-31T15:40:17;13.02;;;8.50;;
52554;SDS011;38455;52.710;6.502;2022-10-31T15:42:56;15.65;;;8.88;;
52554;SDS011;38455;52.710;6.502;2022-10-31T15:45:27;14.65;;;8.82;;
52554;SDS011;38455;52.710;6.502;2022-10-31T15:50:48;13.73;;;9.65;;
52554;SDS011;38455;52.710;6.502;2022-10-31T15:53:17;17.15;;;8.93;;
52554;SDS011;38455;52.710;6.502;2022-10-31T15:55:50;20.20;;;10.18;;
52554;SDS011;38455;52.710;6.502;2022-10-31T15:58:25;19.02;;;9.63;;
52554;SDS011;38455;52.710;6.502;2022-10-31T16:01:03;13.80;;;9.10;;
52554;SDS011;38455;52.710;6.502;2022-10-31T16:03:31;19.45;;;9.88;;
52554;SDS011;38455;52.710;6.502;2022-10-31T16:06:02;15.02;;;8.90;;
52554;SDS011;38455;52.710;6.502;2022-10-31T16:10:55;14.90;;;9.40;;
52554;SDS011;38455;52.710;6.502;2022-10-31T16:14:14;21.08;;;10.00;;
52554;SDS011;38455;52.710;6.502;2022-10-31T16:16:19;17.88;;;10.52;;
52554;SDS011;38455;52.710;6.502;2022-10-31T16:18:46;18.67;;;10.82;;
52554;SDS011;38455;52.710;6.502;2022-10-31T16:21:14;24.08;;;12.63;;
52554;SDS011;38455;52.710;6.502;2022-10-31T16:23:48;23.27;;;11.50;;
52554;SDS011;38455;52.710;6.502;2022-10-31T16:26:19;27.92;;;12.63;;
52554;SDS011;38455;52.710;6.502;2022-10-31T16:28:51;18.50;;;10.85;;
52554;SDS011;38455;52.710;6.502;2022-10-31T16:31:25;26.08;;;14.57;;
52554;SDS011;38455;52.710;6.502;2022-10-31T16:34:03;21.08;;;12.25;;
52554;SDS011;38455;52.710;6.502;2022-10-31T16:36:47;19.60;;;11.35;;
52554;SDS011;38455;52.710;6.502;2022-10-31T16:39:13;20.73;;;12.48;;
52554;SDS011;38455;52.710;6.502;2022-10-31T16:41:40;23.90;;;12.27;;
52554;SDS011;38455;52.710;6.502;2022-10-31T16:44:26;24.50;;;11.35;;
52554;SDS011;38455;52.710;6.502;2022-10-31T16:49:41;21.60;;;12.38;;
52554;SDS011;38455;52.710;6.502;2022-10-31T16:52:07;23.55;;;12.75;;
52554;SDS011;38455;52.710;6.502;2022-10-31T16:54:33;21.30;;;12.88;;
52554;SDS011;38455;52.710;6.502;2022-10-31T16:56:58;25.90;;;12.95;;
52554;SDS011;38455;52.710;6.502;2022-10-31T16:59:26;20.98;;;11.93;;
52554;SDS011;38455;52.710;6.502;2022-10-31T17:01:51;22.38;;;13.40;;
52554;SDS011;38455;52.710;6.502;2022-10-31T17:04:19;24.98;;;12.50;;
52554;SDS011;38455;52.710;6.502;2022-10-31T17:06:44;23.65;;;13.55;;
52554;SDS011;38455;52.710;6.502;2022-10-31T17:09:10;22.20;;;12.73;;
52554;SDS011;38455;52.710;6.502;2022-10-31T17:11:35;25.17;;;13.68;;